createdAt,value
2023-02-19T00:02:52.730Z,6.77
2023-02-19T00:15:26.480Z,6.53
2023-02-19T00:19:27.502Z,5.60
2023-02-19T00:23:29.032Z,5.87
2023-02-19T00:27:30.099Z,5.77
2023-02-19T00:31:33.937Z,5.67
2023-02-19T00:35:35.550Z,4.77
2023-02-19T00:39:36.641Z,4.23
2023-02-19T00:43:37.589Z,5.60
2023-02-19T00:47:38.670Z,3.83
2023-02-19T00:51:39.787Z,4.30
2023-02-19T00:55:40.744Z,4.73
2023-02-19T00:59:41.881Z,5.10
2023-02-19T01:03:43.057Z,4.87
2023-02-19T01:07:44.058Z,5.33
2023-02-19T01:11:45.125Z,5.87
2023-02-19T01:15:46.305Z,6.23
2023-02-19T01:19:49.274Z,5.43
2023-02-19T01:23:51.612Z,4.90
2023-02-19T01:27:52.668Z,4.47
2023-02-19T01:31:53.908Z,4.53
2023-02-19T01:35:55.042Z,4.17
2023-02-19T01:39:56.039Z,3.70
2023-02-19T01:44:03.913Z,3.93
2023-02-19T01:48:32.804Z,2.80
2023-02-19T01:52:35.819Z,3.53
2023-02-19T01:56:39.281Z,3.63
2023-02-19T02:00:40.723Z,3.20
2023-02-19T02:04:41.751Z,3.57
2023-02-19T02:09:01.605Z,3.97
2023-02-19T02:13:02.823Z,4.20
2023-02-19T02:17:10.676Z,6.10
2023-02-19T02:21:30.551Z,3.33
2023-02-19T02:26:01.499Z,2.63
2023-02-19T02:30:26.630Z,11.60
2023-02-19T02:34:31.482Z,3.03
2023-02-19T02:38:35.976Z,3.53
2023-02-19T02:42:40.565Z,2.80
2023-02-19T02:46:44.526Z,2.73
2023-02-19T02:51:01.658Z,2.20
2023-02-19T02:55:06.546Z,2.83
2023-02-19T02:59:09.979Z,3.13
2023-02-19T03:03:12.917Z,2.50
2023-02-19T03:07:14.364Z,3.10
2023-02-19T03:11:33.625Z,2.97
2023-02-19T03:16:02.826Z,2.90
2023-02-19T03:20:07.897Z,3.10
2023-02-19T03:24:29.923Z,2.87
2023-02-19T03:28:52.996Z,2.67
2023-02-19T03:33:05.516Z,2.77
2023-02-19T03:37:10.322Z,2.63
2023-02-19T03:41:26.834Z,2.20
2023-02-19T03:45:54.412Z,1.97
2023-02-19T03:50:02.224Z,1.93
2023-02-19T03:54:21.805Z,2.83
2023-02-19T03:58:32.562Z,1.60
2023-02-19T04:02:37.513Z,1.97
2023-02-19T04:06:40.992Z,1.73
2023-02-19T04:10:43.643Z,1.60
2023-02-19T04:14:48.521Z,1.60
2023-02-19T04:18:53.882Z,1.50
2023-02-19T04:22:56.509Z,1.50
2023-02-19T04:26:57.900Z,1.87
2023-02-19T04:30:59.481Z,1.83
2023-02-19T04:35:00.622Z,2.27
2023-02-19T04:39:01.699Z,2.20
2023-02-19T04:43:02.707Z,2.70
2023-02-19T04:47:04.056Z,2.67
2023-02-19T04:51:06.786Z,3.03
2023-02-19T04:55:08.785Z,3.20
2023-02-19T04:59:10.130Z,4.90
2023-02-19T05:03:11.260Z,3.13
2023-02-19T05:07:12.439Z,3.27
2023-02-19T05:11:13.854Z,3.33
2023-02-19T05:15:15.266Z,3.53
2023-02-19T05:19:16.246Z,4.33
2023-02-19T05:23:18.216Z,2.97
2023-02-19T05:27:19.243Z,4.50
2023-02-19T05:31:20.727Z,3.50
2023-02-19T05:35:21.898Z,2.90
2023-02-19T05:39:23.122Z,3.63
2023-02-19T05:43:24.258Z,2.87
2023-02-19T05:47:25.419Z,3.80
2023-02-19T05:51:27.135Z,3.93
2023-02-19T05:55:29.266Z,7.87
2023-02-19T05:59:31.132Z,4.47
2023-02-19T06:03:32.127Z,3.97
2023-02-19T06:07:33.852Z,9.30
2023-02-19T06:11:35.448Z,4.13
2023-02-19T06:15:36.963Z,6.17
2023-02-19T06:19:38.034Z,5.67
2023-02-19T06:23:39.663Z,4.67
2023-02-19T06:27:40.882Z,7.03
2023-02-19T06:31:42.107Z,7.00
2023-02-19T06:35:43.175Z,7.97
2023-02-19T06:39:44.291Z,6.97
2023-02-19T06:43:46.040Z,10.13
2023-02-19T06:47:47.019Z,9.50
2023-02-19T06:51:48.192Z,8.80
2023-02-19T06:55:58.673Z,8.40
2023-02-19T06:59:59.823Z,12.13
2023-02-19T07:04:01.489Z,7.50
2023-02-19T07:08:02.582Z,5.40
2023-02-19T07:12:04.225Z,6.90
2023-02-19T07:16:08.560Z,7.23
2023-02-19T07:20:10.174Z,8.10
2023-02-19T07:24:11.382Z,6.40
2023-02-19T07:28:12.517Z,11.33
2023-02-19T07:32:13.655Z,8.70
2023-02-19T07:36:16.969Z,12.33
2023-02-19T07:40:17.948Z,11.83
2023-02-19T07:44:19.050Z,12.23
2023-02-19T07:48:20.912Z,9.30
2023-02-19T07:52:21.988Z,10.10
2023-02-19T07:56:23.150Z,12.43
2023-02-19T08:00:25.267Z,8.83
2023-02-19T08:04:26.373Z,10.67
2023-02-19T08:08:28.153Z,9.90
2023-02-19T08:12:47.626Z,11.97
2023-02-19T08:16:50.391Z,6.50
2023-02-19T08:20:51.864Z,11.13
2023-02-19T08:24:52.988Z,14.87
2023-02-19T08:28:54.050Z,14.63
2023-02-19T08:32:55.654Z,9.33
2023-02-19T08:36:56.785Z,12.23
2023-02-19T08:40:58.032Z,12.50
2023-02-19T08:44:59.196Z,12.03
2023-02-19T08:49:00.169Z,14.40
2023-02-19T08:53:02.958Z,16.57
2023-02-19T08:57:04.647Z,16.83
2023-02-19T09:01:14.089Z,19.43
2023-02-19T09:05:16.079Z,21.93
2023-02-19T09:09:17.223Z,14.37
2023-02-19T09:13:18.313Z,17.63
2023-02-19T09:17:19.502Z,15.27
2023-02-19T09:21:20.585Z,15.63
2023-02-19T09:25:21.540Z,14.47
2023-02-19T09:29:25.391Z,11.60
2023-02-19T09:33:26.398Z,11.70
2023-02-19T09:37:27.758Z,13.93
2023-02-19T09:41:31.473Z,11.97
2023-02-19T09:45:35.118Z,12.67
2023-02-19T09:49:44.255Z,9.97
2023-02-19T09:53:49.298Z,10.73
2023-02-19T09:57:51.434Z,8.53
2023-02-19T10:01:59.215Z,12.20
2023-02-19T10:06:03.951Z,11.37
2023-02-19T10:10:18.148Z,9.87
2023-02-19T10:14:25.107Z,18.90
2023-02-19T10:18:29.911Z,14.30
2023-02-19T10:22:33.316Z,10.00
2023-02-19T10:26:36.110Z,11.27
2023-02-19T10:30:37.516Z,12.07
2023-02-19T10:34:38.560Z,9.77
2023-02-19T10:38:43.650Z,15.10
2023-02-19T10:42:50.528Z,13.20
2023-02-19T10:46:56.849Z,10.07
2023-02-19T10:51:05.453Z,12.33
2023-02-19T10:55:28.588Z,10.60
2023-02-19T10:59:31.091Z,11.67
2023-02-19T11:03:32.089Z,11.77
2023-02-19T11:07:33.699Z,15.60
2023-02-19T11:11:39.668Z,16.10
2023-02-19T11:15:42.641Z,17.63
2023-02-19T11:19:48.453Z,14.67
2023-02-19T11:23:50.354Z,17.97
2023-02-19T11:27:58.644Z,17.60
2023-02-19T11:32:23.952Z,17.60
2023-02-19T11:36:31.468Z,20.50
2023-02-19T11:40:45.578Z,21.27
2023-02-19T11:45:23.866Z,21.87
2023-02-19T11:49:44.068Z,18.90
2023-02-19T11:53:54.219Z,19.50
2023-02-19T11:58:18.534Z,20.70
2023-02-19T12:02:41.373Z,20.37
2023-02-19T12:06:55.438Z,23.17
2023-02-19T12:11:21.781Z,18.27
2023-02-19T12:15:38.825Z,22.07
2023-02-19T12:20:01.890Z,15.23
2023-02-19T12:24:24.866Z,14.87
2023-02-19T12:28:41.843Z,14.53
2023-02-19T12:32:49.628Z,14.77
2023-02-19T12:37:15.400Z,12.10
2023-02-19T12:41:32.346Z,14.73
2023-02-19T12:45:46.287Z,13.47
2023-02-19T12:50:00.307Z,12.93
2023-02-19T12:54:08.226Z,12.10
2023-02-19T12:58:13.280Z,16.17
2023-02-19T13:02:24.163Z,10.43
2023-02-19T13:06:38.057Z,10.93
2023-02-19T13:10:55.048Z,11.33
2023-02-19T13:15:08.981Z,12.77
2023-02-19T13:19:14.404Z,12.63
2023-02-19T13:23:43.568Z,10.47
2023-02-19T13:27:57.513Z,14.40
2023-02-19T13:32:22.047Z,11.57
2023-02-19T13:36:25.984Z,9.60
2023-02-19T13:40:34.475Z,10.33
2023-02-19T13:44:39.537Z,10.23
2023-02-19T13:48:42.939Z,12.07
2023-02-19T13:52:44.324Z,10.40
2023-02-19T13:56:45.560Z,8.93
2023-02-19T14:00:49.631Z,8.47
2023-02-19T14:04:53.451Z,8.30
2023-02-19T14:08:56.925Z,9.73
2023-02-19T14:12:58.101Z,8.33
2023-02-19T14:17:14.348Z,12.50
2023-02-19T14:21:36.868Z,8.07
2023-02-19T14:25:41.494Z,10.60
2023-02-19T14:29:43.197Z,8.80
2023-02-19T14:33:51.346Z,9.07
2023-02-19T14:37:55.724Z,11.63
2023-02-19T14:41:59.623Z,7.97
2023-02-19T14:46:06.569Z,12.00
2023-02-19T14:50:14.291Z,9.80
2023-02-19T14:54:21.888Z,4.80
2023-02-19T14:58:27.042Z,5.03
2023-02-19T15:02:30.311Z,4.53
2023-02-19T15:06:33.739Z,5.17
2023-02-19T15:10:36.122Z,5.83
2023-02-19T15:14:39.562Z,3.23
2023-02-19T15:18:45.541Z,3.60
2023-02-19T15:22:47.101Z,3.40
2023-02-19T15:26:51.379Z,3.30
2023-02-19T15:31:04.349Z,3.70
2023-02-19T15:35:06.110Z,4.10
2023-02-19T15:39:07.315Z,3.67
2023-02-19T15:43:12.407Z,4.07
2023-02-19T15:47:23.520Z,4.77
2023-02-19T15:51:46.359Z,3.43
2023-02-19T15:56:06.307Z,3.60
2023-02-19T16:00:14.628Z,3.83
2023-02-19T16:04:18.009Z,8.53
2023-02-19T16:08:20.586Z,6.03
2023-02-19T16:12:24.013Z,5.53
2023-02-19T16:16:29.382Z,4.70
2023-02-19T16:20:35.439Z,4.37
2023-02-19T16:24:39.655Z,5.30
2023-02-19T16:28:42.556Z,5.40
2023-02-19T16:32:46.099Z,5.43
2023-02-19T16:36:48.956Z,5.50
2023-02-19T16:40:55.233Z,5.43
2023-02-19T16:44:56.327Z,4.73
2023-02-19T16:48:58.042Z,6.43
2023-02-19T16:53:01.240Z,4.70
2023-02-19T16:57:02.193Z,9.80
2023-02-19T17:01:03.785Z,7.10
2023-02-19T17:05:05.190Z,6.37
2023-02-19T17:09:09.001Z,6.80
2023-02-19T17:13:10.069Z,6.63
2023-02-19T17:17:11.240Z,12.57
2023-02-19T17:21:27.155Z,20.43
2023-02-19T17:25:28.338Z,12.40
2023-02-19T17:29:31.420Z,10.90
2023-02-19T17:33:32.785Z,14.90
2023-02-19T17:37:34.162Z,23.70
2023-02-19T17:41:35.602Z,10.67
2023-02-19T17:45:36.563Z,13.80
2023-02-19T17:49:37.912Z,22.07
2023-02-19T17:53:39.131Z,12.20
2023-02-19T17:57:40.182Z,12.67
2023-02-19T18:01:41.483Z,13.40
2023-02-19T18:05:42.882Z,19.77
2023-02-19T18:09:44.274Z,13.57
2023-02-19T18:13:45.523Z,11.77
2023-02-19T18:17:46.626Z,13.43
2023-02-19T18:21:47.723Z,9.93
2023-02-19T18:25:48.902Z,11.70
2023-02-19T18:29:51.764Z,13.13
2023-02-19T18:33:52.799Z,11.20
2023-02-19T18:37:54.210Z,11.53
2023-02-19T18:41:57.097Z,12.67
2023-02-19T18:45:58.086Z,16.33
2023-02-19T18:49:59.200Z,12.17
2023-02-19T18:54:01.619Z,12.10
2023-02-19T18:58:02.922Z,10.90
2023-02-19T19:02:08.404Z,10.47
2023-02-19T19:06:09.365Z,12.27
2023-02-19T19:10:10.383Z,12.47
2023-02-19T19:14:11.620Z,11.53
2023-02-19T19:18:12.570Z,16.47
2023-02-19T19:22:14.498Z,14.83
2023-02-19T19:26:16.448Z,20.87
2023-02-19T19:30:19.833Z,12.67
2023-02-19T19:34:20.999Z,13.17
2023-02-19T19:38:21.948Z,12.60
2023-02-19T19:42:23.810Z,12.50
2023-02-19T19:46:24.975Z,36.80
2023-02-19T19:50:26.213Z,12.80
2023-02-19T19:54:27.927Z,31.20
2023-02-19T19:58:29.250Z,14.67
2023-02-19T20:02:30.310Z,18.73
2023-02-19T20:10:41.478Z,17.20
2023-02-19T20:14:46.086Z,17.47
2023-02-19T20:18:47.178Z,22.40
2023-02-19T20:22:51.136Z,18.23
2023-02-19T20:26:58.042Z,18.57
2023-02-19T20:30:59.126Z,23.23
2023-02-19T20:35:00.464Z,22.10
2023-02-19T20:39:01.593Z,20.17
2023-02-19T20:43:02.686Z,20.80
2023-02-19T20:47:04.370Z,26.93
2023-02-19T20:51:05.712Z,18.53
2023-02-19T20:55:08.370Z,16.10
2023-02-19T20:59:09.487Z,17.40
2023-02-19T21:03:11.237Z,15.80
2023-02-19T21:07:12.305Z,15.88
2023-02-19T21:11:13.490Z,16.57
2023-02-19T21:15:14.717Z,16.20
2023-02-19T21:19:17.656Z,15.53
2023-02-19T21:23:18.696Z,15.37
2023-02-19T21:27:20.664Z,17.20
2023-02-19T21:31:23.913Z,21.57
2023-02-19T21:35:24.855Z,16.10
2023-02-19T21:39:26.984Z,15.73
2023-02-19T21:43:28.719Z,16.07
2023-02-19T21:47:29.765Z,17.50
2023-02-19T21:51:33.558Z,15.87
2023-02-19T21:55:34.748Z,16.97
2023-02-19T21:59:35.772Z,16.33
2023-02-19T22:03:36.896Z,16.53
2023-02-19T22:07:38.012Z,16.40
2023-02-19T22:11:39.234Z,18.60
2023-02-19T22:15:40.285Z,17.90
2023-02-19T22:19:41.732Z,16.07
2023-02-19T22:23:45.028Z,15.97
2023-02-19T22:27:46.119Z,16.80
2023-02-19T22:31:47.637Z,17.17
2023-02-19T22:35:48.825Z,18.83
2023-02-19T22:39:49.894Z,16.90
2023-02-19T22:43:56.862Z,16.40
2023-02-19T22:47:57.894Z,17.73
2023-02-19T22:52:06.796Z,17.27
2023-02-19T22:56:07.805Z,18.37
2023-02-19T23:00:10.842Z,18.07
2023-02-19T23:04:12.213Z,16.63
2023-02-19T23:08:13.260Z,18.00
2023-02-19T23:12:14.496Z,16.37
2023-02-19T23:16:16.112Z,20.60
2023-02-19T23:20:17.278Z,14.20
2023-02-19T23:24:18.426Z,13.03
2023-02-19T23:28:19.642Z,14.57
2023-02-19T23:32:22.751Z,11.00
2023-02-19T23:36:23.848Z,12.57
2023-02-19T23:40:24.788Z,12.53
2023-02-19T23:44:25.973Z,12.03
2023-02-19T23:48:27.111Z,11.53
2023-02-19T23:52:28.139Z,10.43
2023-02-19T23:56:29.483Z,11.03
